^^
Datos históricos de la estación: Murcia-Puente Tocinos
Diario Informe para Enero 11, 2019 Unidades:  Ingés    Métrico   Ambas
Diario Semanal Mensual Anual
  Máxima: Mínima: Promedio:
Temperatura: 93.7 °F 76.5 °F 84.2 °F
Punto de rocio: 75.2 °F 67.8 °F 72.5 °F
Humedad: 87% 45.5% 69%
Velocidad viento: 11.8mph 0mph 4.9mph
Racha viento: 21mph - -
Viento- - Este
Presión: 29.9 in 29.8 in -
Precipitación: 0 in    
 
 
Tabla de datos para Enero 11, 2019
Hora Temperatura Punto de rocio Presión Viento Velocidad viento Racha viento Humedad Intensidad lluvia(por hora) Nubes
00:14 82 °F 72.7 °F 29.9 in ENE 3.6 mph 10.4 mph 73% 0 in
00:19 82.2 °F 72.7 °F 29.9 in NE 3.6 mph 10.4 mph 72.8% 0 in
00:24 82.2 °F 72.7 °F 29.9 in NE 3.1 mph 10 mph 73% 0 in
00:29 82 °F 72.5 °F 29.9 in NE 3.3 mph 7 mph 73% 0 in
00:34 82 °F 72.5 °F 29.9 in NNE 4 mph 6 mph 73.2% 0 in
00:39 82 °F 72.9 °F 29.9 in NNE 3.9 mph 6 mph 74% 0 in
00:44 81.9 °F 73 °F 29.9 in NNE 3.6 mph 6 mph 75% 0 in
00:49 81.7 °F 72.9 °F 29.9 in NNE 3.6 mph 6 mph 75% 0 in
00:54 81.3 °F 73 °F 29.9 in NNE 3.6 mph 6.2 mph 75.8% 0 in
00:59 81.1 °F 73 °F 29.9 in NE 3.7 mph 6 mph 76.3% 0 in
01:04 81.1 °F 73 °F 29.9 in NNE 4 mph 6 mph 76.8% 0 in
01:09 81 °F 73.2 °F 29.9 in NNO 3.8 mph 6 mph 77.1% 0 in
01:14 81 °F 73.6 °F 29.9 in NNE 3.1 mph 5 mph 78% 0 in
01:19 80.8 °F 73.4 °F 29.9 in NNE 3 mph 5.4 mph 78% 0 in
01:24 80.8 °F 73.6 °F 29.9 in NNE 2.9 mph 6 mph 78.9% 0 in
01:29 80.4 °F 73.6 °F 29.9 in North 3 mph 6 mph 79.5% 0 in
01:34 80.4 °F 73.8 °F 29.9 in NE 3.6 mph 5 mph 80% 0 in
01:39 80.4 °F 73.6 °F 29.9 in NE 3.4 mph 5 mph 79.9% 0 in
01:44 80.4 °F 73.8 °F 29.9 in NNE 2.9 mph 5.2 mph 79.9% 0 in
01:49 80.4 °F 73.8 °F 29.9 in NE 2.9 mph 5 mph 80% 0 in
01:54 80.2 °F 73.6 °F 29.9 in NNE 2.9 mph 5.2 mph 80% 0 in
01:59 80.2 °F 73.6 °F 29.9 in NNE 2.9 mph 5 mph 80.2% 0 in
02:04 80.1 °F 73.8 °F 29.9 in NE 3.1 mph 5.2 mph 81% 0 in
02:09 79.9 °F 73.8 °F 29.9 in NE 3.1 mph 6.2 mph 81.3% 0 in
02:14 79.9 °F 73.9 °F 29.9 in NE 3.1 mph 6 mph 82% 0 in
02:19 79.7 °F 73.8 °F 29.9 in NE 3.2 mph 6.2 mph 82% 0 in
02:24 79.7 °F 73.8 °F 29.9 in NNE 3.6 mph 6 mph 82% 0 in
02:29 79.7 °F 73.8 °F 29.9 in NNE 3.5 mph 5.2 mph 82% 0 in
02:34 79.5 °F 73.4 °F 29.9 in NNE 3.1 mph 5.9 mph 81.5% 0 in
02:39 79.3 °F 73 °F 29.9 in NNE 3.1 mph 6.2 mph 81% 0 in
02:44 79.3 °F 73 °F 29.9 in NNE 3.1 mph 6 mph 81% 0 in
02:49 79.2 °F 73 °F 29.9 in NNE 3.2 mph 6.2 mph 81.5% 0 in
02:54 79.2 °F 73.2 °F 29.9 in NE 3.6 mph 6 mph 82% 0 in
02:59 79.2 °F 73.2 °F 29.9 in NNE 3.6 mph 6.2 mph 82% 0 in
03:04 79 °F 72.7 °F 29.9 in NNE 3.6 mph 6 mph 81.1% 0 in
03:09 78.8 °F 72.7 °F 29.9 in NE 3.6 mph 6.2 mph 81.4% 0 in
03:14 78.6 °F 72.3 °F 29.9 in NNE 3.6 mph 6 mph 81.1% 0 in
03:19 78.4 °F 72 °F 29.9 in NNE 3.5 mph 6.2 mph 80.1% 0 in
03:24 78.4 °F 71.8 °F 29.9 in NE 3.1 mph 6 mph 80% 0 in
03:29 78.4 °F 71.8 °F 29.9 in NE 3.1 mph 5.8 mph 80% 0 in
03:34 78.6 °F 72.3 °F 29.9 in NE 3.1 mph 6 mph 81% 0 in
03:39 78.6 °F 72.7 °F 29.9 in NE 3 mph 5 mph 81.9% 0 in
03:44 78.6 °F 72.7 °F 29.9 in NE 2.9 mph 5.2 mph 82% 0 in
03:49 78.6 °F 72.7 °F 29.9 in NE 2.8 mph 5 mph 82% 0 in
03:54 78.6 °F 72.7 °F 29.9 in NNE 2.4 mph 5 mph 82% 0 in
03:59 78.6 °F 72.3 °F 29.9 in NNO 2.3 mph 5 mph 81.2% 0 in
04:04 78.4 °F 72.1 °F 29.9 in NNE 2 mph 5 mph 81% 0 in
04:09 78.4 °F 72.5 °F 29.9 in NE 1.9 mph 3.6 mph 82% 0 in
04:14 78.4 °F 72.5 °F 29.9 in NNO 1.4 mph 4 mph 82% 0 in
04:19 78.6 °F 72.7 °F 29.9 in North 1.4 mph 3 mph 82% 0 in
04:24 78.6 °F 72.7 °F 29.9 in NNO 1.4 mph 3.5 mph 82% 0 in
04:29 78.4 °F 72.5 °F 29.9 in NNO 1.4 mph 3 mph 82% 0 in
04:34 78.4 °F 72.5 °F 29.9 in North 1.4 mph 3.5 mph 82% 0 in
04:39 78.4 °F 72.7 °F 29.9 in NE 1.5 mph 3.6 mph 82.9% 0 in
04:44 78.4 °F 72.9 °F 29.9 in Este 1.8 mph 4 mph 83% 0 in
04:49 78.4 °F 72.9 °F 29.9 in ESE 1.8 mph 4.6 mph 83% 0 in
04:54 78.4 °F 72.9 °F 29.9 in Este 1.8 mph 5 mph 83% 0 in
04:59 78.4 °F 72.9 °F 29.9 in ESE 2.1 mph 5 mph 83% 0 in
05:04 78.3 °F 72.7 °F 29.9 in ESE 2.9 mph 5 mph 83% 0 in
05:09 78.3 °F 72.3 °F 29.9 in ESE 2.7 mph 4 mph 82.3% 0 in
05:14 78.1 °F 71.6 °F 29.9 in Este 2 mph 4 mph 80.7% 0 in
05:19 78.1 °F 72 °F 29.9 in Este 1.5 mph 3 mph 81.5% 0 in
05:24 78.1 °F 72.5 °F 29.9 in Calm     82.7% 0 in
05:29 78.3 °F 72.7 °F 29.9 in SE 0.4 mph 5.9 mph 82.8% 0 in
05:34 78.4 °F 72.3 °F 29.9 in ESE 1.8 mph 6 mph 81.6% 0 in
05:39 78.4 °F 72 °F 29.9 in ENE 1.9 mph 5 mph 80.7% 0 in
05:44 78.3 °F 71.1 °F 29.9 in NE 2 mph 2 mph 78.5% 0 in
05:49 78.1 °F 70.7 °F 29.9 in NE 1.6 mph 2.9 mph 78% 0 in
05:54 78.1 °F 70.7 °F 29.9 in Calm   3.6 mph 78% 0 in
05:59 78.1 °F 70.7 °F 29.9 in NNO 0.6 mph 4.6 mph 78% 0 in
06:04 78.1 °F 71.1 °F 29.9 in NO 2 mph 5 mph 79.1% 0 in
06:09 78.1 °F 71.8 °F 29.9 in NNO 2.1 mph 5.2 mph 81% 0 in
06:14 78.1 °F 72.5 °F 29.9 in NNE 2.4 mph 6.2 mph 82.8% 0 in
06:19 78.1 °F 73 °F 29.9 in NNE 2.9 mph 11.2 mph 84.5% 0 in
06:24 77.5 °F 73 °F 29.8 in ENE 4.3 mph 12 mph 85.9% 0 in
06:29 77.4 °F 73.2 °F 29.8 in NNE 4.4 mph 12 mph 87% 0 in
06:34 77.4 °F 73 °F 29.9 in Este 4.7 mph 7 mph 86.8% 0 in
06:39 77 °F 72.5 °F 29.9 in ENE 4.5 mph 8.1 mph 85.9% 0 in
06:44 76.6 °F 71.8 °F 29.9 in ENE 3.6 mph 8 mph 85% 0 in
06:49 76.6 °F 71.8 °F 29.9 in Este 3.5 mph 6 mph 85% 0 in
06:54 76.5 °F 71.4 °F 29.9 in ESE 3.1 mph 5 mph 84% 0 in
06:59 76.5 °F 71.6 °F 29.9 in Este 2.8 mph 5 mph 84.8% 0 in
07:04 76.6 °F 71.8 °F 29.9 in ENE 2 mph 3 mph 85% 0 in
07:09 76.6 °F 72 °F 29.9 in NNE 1.6 mph 3 mph 85% 0 in
07:14 76.8 °F 72 °F 29.9 in Calm   2.9 mph 85% 0 in
07:19 77 °F 72.1 °F 29.9 in NO 0.3 mph 4.6 mph 85% 0 in
07:24 77.2 °F 72.1 °F 29.9 in NO 1.4 mph 5 mph 84.3% 0 in
07:29 77.2 °F 72.3 °F 29.9 in NO 1.4 mph 3.6 mph 84.8% 0 in
07:34 77.4 °F 72.5 °F 29.9 in NO 1.4 mph 4 mph 85% 0 in
07:39 77.5 °F 72.7 °F 29.9 in NE 1.4 mph 4.7 mph 85% 0 in
07:44 77.5 °F 72.7 °F 29.9 in North 1.4 mph 5 mph 85% 0 in
07:49 77.5 °F 72.5 °F 29.9 in NNO 1.6 mph 4.7 mph 84.3% 0 in
07:54 77.5 °F 72.3 °F 29.9 in NNO 2 mph 5 mph 84% 0 in
07:59 77.5 °F 72.3 °F 29.9 in NNO 1.9 mph 5 mph 84% 0 in
08:04 77.5 °F 72.5 °F 29.9 in NNO 1.8 mph 2.3 mph 84.4% 0 in
08:09 77.7 °F 72.9 °F 29.9 in NNO 1.4 mph 2.3 mph 85% 0 in
08:14 77.7 °F 72.9 °F 29.9 in Calm   2.9 mph 85% 0 in
08:19 77.9 °F 73 °F 29.9 in Calm   3 mph 85% 0 in
08:24 78.1 °F 73.2 °F 29.9 in Calm   4.6 mph 85.2% 0 in
08:29 78.1 °F 72.9 °F 29.9 in ESE 0.6 mph 5.8 mph 84.3% 0 in
08:34 78.1 °F 72.7 °F 29.9 in SE 2.4 mph 6 mph 83.7% 0 in
08:39 77.7 °F 72.3 °F 29.9 in SE 2.5 mph 6 mph 83.3% 0 in
08:44 77.7 °F 72.7 °F 29.9 in ESE 2.9 mph 6.2 mph 84% 0 in
08:49 77.9 °F 72.3 °F 29.9 in SE 3 mph 6.2 mph 83.1% 0 in
08:54 78.3 °F 72.9 °F 29.9 in SSE 3.6 mph 6 mph 83.7% 0 in
08:59 78.4 °F 72.9 °F 29.9 in SE 3.2 mph 4 mph 83.3% 0 in
09:04 78.8 °F 73.6 °F 29.9 in SSO 2 mph 4.6 mph 84% 0 in
09:09 79 °F 73.8 °F 29.9 in SSO 2 mph 5 mph 84% 0 in
09:14 79.2 °F 73.8 °F 29.9 in ESE 2 mph 5.9 mph 83.8% 0 in
09:19 79.3 °F 73.8 °F 29.9 in Este 2.2 mph 6 mph 83.5% 0 in
09:24 79.3 °F 74.1 °F 29.9 in ENE 2.9 mph 5 mph 84% 0 in
09:29 79.5 °F 74.3 °F 29.9 in NNE 2.7 mph 5 mph 84% 0 in
09:34 79.9 °F 74.3 °F 29.9 in North 2 mph 3.5 mph 83.1% 0 in
09:39 80.2 °F 74.5 °F 29.9 in NNO 1.9 mph 4.7 mph 83% 0 in
09:44 80.2 °F 74.7 °F 29.9 in NNO 1.8 mph 5 mph 83% 0 in
09:49 80.4 °F 74.8 °F 29.9 in NNE 1.9 mph 5.8 mph 83% 0 in
09:54 81 °F 75 °F 29.9 in NE 2.4 mph 6 mph 82.4% 0 in
09:59 81.1 °F 74.8 °F 29.9 in ONO 2.3 mph 5 mph 81.2% 0 in
10:04 81.5 °F 75 °F 29.9 in OSO 2 mph 5 mph 80.6% 0 in
10:09 81.9 °F 75 °F 29.9 in SE 2 mph 5 mph 79.8% 0 in
10:14 82.2 °F 74.8 °F 29.9 in NNO 2 mph 5.8 mph 78.6% 0 in
10:19 82.6 °F 75.2 °F 29.9 in SSE 2.1 mph 6 mph 78.7% 0 in
10:24 82.9 °F 75.2 °F 29.9 in Este 2.4 mph 5 mph 77.8% 0 in
10:29 83.3 °F 75 °F 29.9 in NE 2.5 mph 5.9 mph 76.5% 0 in
10:34 83.1 °F 74.8 °F 29.9 in North 2.9 mph 6 mph 75.9% 0 in
10:39 83.3 °F 75 °F 29.9 in NE 2.7 mph 6.2 mph 75.9% 0 in
10:44 83.7 °F 74.7 °F 29.9 in NNE 2 mph 6 mph 74.6% 0 in
10:49 83.8 °F 74.7 °F 29.9 in NNE 2.1 mph 6 mph 74% 0 in
10:54 84.2 °F 74.8 °F 29.9 in ENE 2.4 mph 5.9 mph 74% 0 in
10:59 84.4 °F 74.8 °F 29.9 in ESE 2.6 mph 8.5 mph 73.4% 0 in
11:04 84 °F 74.5 °F 29.9 in SE 3.1 mph 9 mph 73.3% 0 in
11:09 84 °F 74.7 °F 29.9 in Este 3.3 mph 8.1 mph 73.5% 0 in
11:14 84.2 °F 74.3 °F 29.9 in Este 4 mph 9.2 mph 72.4% 0 in
11:19 84.2 °F 74.5 °F 29.9 in ENE 4.2 mph 9 mph 72.6% 0 in
11:24 84.4 °F 74.8 °F 29.9 in Este 4.7 mph 8.1 mph 73% 0 in
11:29 84.7 °F 74.8 °F 29.9 in ENE 4.5 mph 8 mph 72.2% 0 in
11:34 84.9 °F 74.5 °F 29.9 in ENE 3.6 mph 7 mph 70.9% 0 in
11:39 85.1 °F 74.7 °F 29.9 in ENE 3.5 mph 7 mph 71% 0 in
11:44 85.6 °F 74.7 °F 29.9 in NE 3.1 mph 6.9 mph 69.8% 0 in
11:49 85.5 °F 74.3 °F 29.9 in Este 3.4 mph 7 mph 69.3% 0 in
11:54 85.5 °F 74.1 °F 29.9 in Este 4.3 mph 9.2 mph 68.9% 0 in
11:59 85.5 °F 73.8 °F 29.9 in ESE 4.2 mph 9 mph 68% 0 in
12:04 85.6 °F 73.9 °F 29.9 in NO 4 mph 8.5 mph 67.7% 0 in
12:09 86.4 °F 73.9 °F 29.9 in NNE 3.8 mph 9 mph 66.6% 0 in
12:14 86.5 °F 73.2 °F 29.9 in North 3.1 mph 9 mph 64.7% 0 in
12:19 86.9 °F 73.2 °F 29.9 in NNO 3.2 mph 6.2 mph 63.9% 0 in
12:24 87.1 °F 72.5 °F 29.9 in NO 3.6 mph 6 mph 61.9% 0 in
12:29 87.4 °F 72.3 °F 29.9 in NNO 3.5 mph 8.1 mph 61.2% 0 in
12:34 87.8 °F 72.1 °F 29.9 in ENE 3.1 mph 8 mph 60.1% 0 in
12:39 87.6 °F 72.1 °F 29.9 in SO 3.1 mph 6 mph 60% 0 in
12:44 87.8 °F 71.6 °F 29.9 in NNE 3.1 mph 6.9 mph 58.7% 0 in
12:49 88.2 °F 71.6 °F 29.9 in NNO 3.2 mph 7.4 mph 58% 0 in
12:54 88.5 °F 71.2 °F 29.9 in NE 3.6 mph 8.1 mph 56.7% 0 in
12:59 88.7 °F 71.6 °F 29.9 in NNE 3.8 mph 8 mph 57% 0 in
13:04 89.1 °F 71.1 °F 29.9 in NE 4.3 mph 7 mph 55.7% 0 in
13:09 89.2 °F 70.9 °F 29.9 in ONO 4.1 mph 6 mph 54.6% 0 in
13:14 89.6 °F 70.2 °F 29.9 in ENE 2.9 mph 9.2 mph 53.1% 0 in
13:19 90 °F 69.8 °F 29.9 in ENE 3 mph 9 mph 51.8% 0 in
13:24 90.1 °F 68.4 °F 29.9 in SE 3.6 mph 6 mph 49.1% 0 in
13:29 90.7 °F 70.7 °F 29.9 in NNO 3.4 mph 6.2 mph 52% 0 in
13:34 91 °F 69.4 °F 29.9 in NE 2.9 mph 8.7 mph 49.4% 0 in
13:39 91.2 °F 67.8 °F 29.9 in NNE 3.3 mph 9.2 mph 46.5% 0 in
13:44 91.2 °F 68.2 °F 29.9 in NNE 4.7 mph 9 mph 47% 0 in
13:49 91.4 °F 69.1 °F 29.9 in NE 4.8 mph 11.5 mph 48.1% 0 in
13:54 91.4 °F 68.9 °F 29.9 in ENE 5.2 mph 12.7 mph 48% 0 in
13:59 91.6 °F 69.4 °F 29.9 in NNE 5 mph 13 mph 48.6% 0 in
14:04 91.9 °F 70 °F 29.9 in NNO 4.3 mph 10.2 mph 49% 0 in
14:09 92.5 °F 70 °F 29.8 in NNE 4.6 mph 10 mph 48.2% 0 in
14:14 92.7 °F 68.5 °F 29.8 in ENE 5.4 mph 9 mph 45.5% 0 in
14:19 92.8 °F 69.1 °F 29.8 in NE 5.4 mph 11.5 mph 46% 0 in
14:24 93.2 °F 69.4 °F 29.8 in NNE 5.4 mph 12 mph 46.1% 0 in
14:29 93.4 °F 70.2 °F 29.8 in NE 5.2 mph 10.4 mph 47% 0 in
14:34 93.6 °F 70.7 °F 29.8 in NE 4.7 mph 12.7 mph 47.7% 0 in
14:39 93.7 °F 70.5 °F 29.8 in ENE 5.1 mph 13 mph 47.2% 0 in
14:44 93.6 °F 71.2 °F 29.8 in NE 6.2 mph 17.5 mph 48.6% 0 in
14:49 93.6 °F 72.3 °F 29.8 in NE 6.6 mph 17 mph 50.3% 0 in
14:54 93.6 °F 73.2 °F 29.8 in ENE 8.1 mph 15 mph 51.9% 0 in
14:59 93 °F 73.4 °F 29.8 in ENE 8.1 mph 14 mph 53% 0 in
15:04 92.8 °F 72.9 °F 29.8 in NE 8.1 mph 13 mph 52.5% 0 in
15:09 92.8 °F 73.2 °F 29.8 in NE 8 mph 16.1 mph 53.1% 0 in
15:14 92.5 °F 73.4 °F 29.8 in NE 7.6 mph 16.1 mph 53.9% 0 in
15:19 92.3 °F 73.2 °F 29.8 in NE 8.1 mph 17.5 mph 54% 0 in
15:24 92.1 °F 73.2 °F 29.8 in NE 9.7 mph 17 mph 54.1% 0 in
15:29 92.3 °F 73.2 °F 29.8 in NE 9.2 mph 13 mph 54% 0 in
15:34 92.8 °F 73.4 °F 29.8 in NE 7.6 mph 13.8 mph 53.4% 0 in
15:39 92.8 °F 73.6 °F 29.8 in NE 7.6 mph 14 mph 53.6% 0 in
15:44 92.8 °F 73.6 °F 29.8 in ENE 7.4 mph 17.5 mph 53.7% 0 in
15:49 93.2 °F 73.9 °F 29.8 in Este 7.6 mph 17 mph 53.7% 0 in
15:54 93.2 °F 73.6 °F 29.8 in ESE 8.1 mph 14 mph 53.1% 0 in
15:59 93 °F 73.8 °F 29.8 in SE 7.9 mph 14 mph 53.6% 0 in
16:04 92.8 °F 73.6 °F 29.8 in ESE 7.4 mph 13 mph 53.7% 0 in
16:09 92.7 °F 73.4 °F 29.8 in ESE 7.6 mph 14 mph 53.8% 0 in
16:14 92.7 °F 73.4 °F 29.8 in ESE 8.1 mph 16.3 mph 53.6% 0 in
16:19 92.7 °F 73 °F 29.8 in ESE 8.2 mph 16.1 mph 53% 0 in
16:24 92.5 °F 73 °F 29.8 in ESE 8.5 mph 16 mph 53.5% 0 in
16:29 92.7 °F 72.7 °F 29.8 in ESE 8.3 mph 14 mph 52.3% 0 in
16:34 92.7 °F 72 °F 29.8 in Este 7.4 mph 12 mph 51.1% 0 in
16:39 92.8 °F 72 °F 29.8 in ESE 6.6 mph 11.5 mph 50.9% 0 in
16:44 92.8 °F 72.1 °F 29.8 in Este 4.3 mph 12 mph 51% 0 in
16:49 92.8 °F 71.4 °F 29.8 in Este 4.4 mph 7.6 mph 49.8% 0 in
16:54 93 °F 71.1 °F 29.8 in NE 4.7 mph 15.2 mph 49.1% 0 in
16:59 93 °F 70.5 °F 29.8 in ENE 5.3 mph 15 mph 48.2% 0 in
17:04 93 °F 70.9 °F 29.8 in NE 6.9 mph 15.2 mph 48.5% 0 in
17:09 92.7 °F 71.1 °F 29.8 in NE 7.7 mph 18.4 mph 49.8% 0 in
17:14 92.1 °F 70.3 °F 29.8 in NE 10.2 mph 18 mph 49.1% 0 in
17:19 92.5 °F 71.1 °F 29.8 in NE 10.2 mph 17 mph 49.9% 0 in
17:24 92.3 °F 70.9 °F 29.8 in NE 10.2 mph 17.3 mph 50% 0 in
17:29 92.1 °F 70.9 °F 29.8 in NE 10.2 mph 17.3 mph 50.2% 0 in
17:34 92.3 °F 70.7 °F 29.8 in NE 10.2 mph 17 mph 49.6% 0 in
17:39 92.1 °F 70.2 °F 29.8 in NE 10.1 mph 17.3 mph 48.8% 0 in
17:44 92.1 °F 70.7 °F 29.8 in NNE 10 mph 17.5 mph 49.7% 0 in
17:49 92.1 °F 70.9 °F 29.8 in NE 10 mph 17 mph 50% 0 in
17:54 92.1 °F 70.7 °F 29.8 in NE 10 mph 17.3 mph 50% 0 in
17:59 92.1 °F 70.7 °F 29.8 in NE 10 mph 15.2 mph 50% 0 in
18:04 92.1 °F 70.9 °F 29.8 in NE 10 mph 18.4 mph 50.2% 0 in
18:09 91.9 °F 72.1 °F 29.8 in NE 9.8 mph 19.6 mph 52.6% 0 in
18:14 91.2 °F 72.7 °F 29.8 in NE 9.2 mph 20 mph 54.6% 0 in
18:19 91 °F 72.5 °F 29.8 in NE 9.7 mph 18.4 mph 54.8% 0 in
18:24 90.9 °F 72.5 °F 29.8 in NE 11.2 mph 17.3 mph 55% 0 in
18:29 90.9 °F 72.5 °F 29.8 in NE 11 mph 19.7 mph 55% 0 in
18:34 90.9 °F 72.3 °F 29.8 in NE 10.2 mph 20.7 mph 55% 0 in
18:39 90.9 °F 72.3 °F 29.8 in NE 10.6 mph 21 mph 55% 0 in
18:44 90.7 °F 72.5 °F 29.8 in NE 11.8 mph 16.1 mph 55.3% 0 in
18:49 90.1 °F 72.5 °F 29.8 in NE 11.6 mph 19 mph 56.3% 0 in
18:54 90 °F 72.7 °F 29.8 in NE 10.7 mph 19 mph 57% 0 in
18:59 89.8 °F 72.5 °F 29.8 in NE 10.4 mph 15 mph 56.9% 0 in
19:04 89.8 °F 72.5 °F 29.8 in NE 9.7 mph 17.8 mph 56.8% 0 in
19:09 89.4 °F 72.5 °F 29.8 in NNE 9.8 mph 18.4 mph 57.7% 0 in
19:14 89.2 °F 72.3 °F 29.8 in NE 10.2 mph 18 mph 57.3% 0 in
19:19 89.2 °F 72.3 °F 29.8 in NE 10.3 mph 18.4 mph 57.4% 0 in
19:24 89.1 °F 72.3 °F 29.8 in NE 10.7 mph 18 mph 57.9% 0 in
19:29 88.9 °F 72.1 °F 29.8 in NE 10.8 mph 20.7 mph 58% 0 in
19:34 88.5 °F 72 °F 29.8 in NE 11.2 mph 21 mph 58.3% 0 in
19:39 88.3 °F 72.3 °F 29.8 in NE 11.2 mph 17.3 mph 59.1% 0 in
19:44 88.2 °F 72.3 °F 29.8 in NE 11.2 mph 19 mph 59.6% 0 in
19:49 87.8 °F 72.1 °F 29.8 in NE 11.2 mph 19 mph 60% 0 in
19:54 87.8 °F 72.5 °F 29.8 in NE 11.4 mph 16.3 mph 60.4% 0 in
19:59 87.6 °F 72.5 °F 29.8 in NE 10.9 mph 16.1 mph 60.9% 0 in
20:04 87.4 °F 72.7 °F 29.8 in NE 9.7 mph 14 mph 61.6% 0 in
20:09 87.4 °F 72.9 °F 29.8 in NE 9.4 mph 15 mph 62.2% 0 in
20:14 87.3 °F 73.2 °F 29.8 in NE 8.7 mph 15 mph 63.6% 0 in
20:19 86.7 °F 73.4 °F 29.8 in NE 8.8 mph 16.1 mph 64.4% 0 in
20:24 86.5 °F 73.4 °F 29.8 in NE 9.2 mph 16 mph 65% 0 in
20:29 86.4 °F 73.4 °F 29.8 in NE 9.4 mph 16.1 mph 65.7% 0 in
20:34 86 °F 73.4 °F 29.8 in NE 10 mph 16.1 mph 66% 0 in
20:39 85.8 °F 73.2 °F 29.8 in NE 9.6 mph 16 mph 66% 0 in
20:44 85.8 °F 73.2 °F 29.8 in NE 8.5 mph 16.1 mph 66.3% 0 in
20:49 85.5 °F 73.2 °F 29.8 in NE 8.8 mph 16.1 mph 67% 0 in
20:54 85.3 °F 73 °F 29.8 in NE 9.7 mph 14 mph 66.9% 0 in
20:59 85.3 °F 72.7 °F 29.8 in NE 9.4 mph 14 mph 66.3% 0 in
21:04 85.1 °F 72.5 °F 29.8 in NE 8.5 mph 15 mph 66% 0 in
21:09 84.9 °F 72 °F 29.8 in NE 8.6 mph 15 mph 65.5% 0 in
21:14 84.7 °F 71.8 °F 29.8 in NE 9.2 mph 14 mph 65% 0 in
21:19 84.7 °F 72 °F 29.8 in NE 8.9 mph 13 mph 65.5% 0 in
21:24 84.6 °F 72.1 °F 29.8 in NE 8.1 mph 13.8 mph 66.3% 0 in
21:29 84.6 °F 72.3 °F 29.8 in NE 8 mph 14 mph 67% 0 in
21:34 84.4 °F 72.1 °F 29.8 in NE 7.6 mph 13.5 mph 67% 0 in
21:39 84 °F 72 °F 29.8 in NE 7.8 mph 14 mph 67% 0 in
21:44 84 °F 72.1 °F 29.8 in NE 8.5 mph 14 mph 67.7% 0 in
21:49 84 °F 72.3 °F 29.8 in NE 8.2 mph 12.7 mph 68% 0 in
21:54 83.8 °F 72.1 °F 29.8 in NE 7.4 mph 13 mph 68.1% 0 in
21:59 83.8 °F 72.3 °F 29.8 in NE 7.3 mph 13 mph 68.5% 0 in
22:04 83.8 °F 72.5 °F 29.8 in NE 6.9 mph 12 mph 68.8% 0 in
22:09 83.7 °F 72.1 °F 29.8 in NE 6.6 mph 10 mph 68.5% 0 in
22:14 83.7 °F 72.3 °F 29.8 in NE 5.9 mph 10 mph 69% 0 in
22:19 83.7 °F 72.1 °F 29.9 in NE 5.7 mph 9.2 mph 68.3% 0 in
22:24 83.5 °F 71.8 °F 29.9 in NE 5.2 mph 9.2 mph 68% 0 in
22:29 83.5 °F 71.8 °F 29.9 in NE 5.2 mph 9.2 mph 68% 0 in
22:34 83.1 °F 71.6 °F 29.9 in NE 5.4 mph 9.7 mph 68% 0 in
22:39 83.1 °F 71.4 °F 29.9 in NE 5.3 mph 10 mph 67.8% 0 in
22:44 83.1 °F 71.1 °F 29.9 in NE 5.2 mph 9 mph 67% 0 in
22:49 83.1 °F 70.7 °F 29.9 in NE 5.2 mph 9.2 mph 66.4% 0 in
22:54 83.1 °F 70.5 °F 29.9 in NE 5.2 mph 9 mph 66% 0 in
22:59 83.1 °F 70.5 °F 29.9 in NE 5.2 mph 9 mph 66% 0 in
23:04 82.9 °F 70.3 °F 29.9 in NE 5.2 mph 8.1 mph 66% 0 in
23:09 82.8 °F 70.3 °F 29.9 in NNE 5.2 mph 9.2 mph 66.4% 0 in
23:14 82.4 °F 71.1 °F 29.9 in NNE 5.4 mph 9.2 mph 68.6% 0 in
23:19 82 °F 71.2 °F 29.9 in NE 5.4 mph 9.7 mph 69.7% 0 in
23:24 81.9 °F 71.1 °F 29.9 in NE 5.4 mph 10 mph 70% 0 in
23:29 81.5 °F 71.1 °F 29.9 in NE 5.4 mph 8.1 mph 70.6% 0 in
23:34 81.3 °F 71.1 °F 29.9 in NE 5.4 mph 8 mph 71% 0 in
23:39 81.3 °F 71.1 °F 29.9 in NE 5.2 mph 7.4 mph 71% 0 in
23:44 81.1 °F 71.2 °F 29.9 in NE 4.3 mph 7 mph 71.9% 0 in
23:49 81.1 °F 71.4 °F 29.9 in NE 4 mph 7 mph 72.1% 0 in
23:54 81.1 °F 71.8 °F 29.9 in NE 2.9 mph 7.4 mph 73% 0 in
23:59 81 °F 71.8 °F 29.9 in NE 3.3 mph 7 mph 73.7% 0 in
Murcia-Puente Tocinos, España
Compliments of Weather Underground - 3 mb

La estación de MeteoMurcia.com, publica sus datos en los siguientes proyectos:

Weather Underground PWS IMURCIAP2 Meteoclimatic www.awekas.at

W3Counter
Web Analytics